BTI9JT EVRA-EDDB
Flight info
| Callsign | BTI9JT |
|---|---|
| Flight time | N/A |
| Altitude | 34000 |
| Route | VALED DCT ADAXA DCT NINTA DCT DIPEB DCT GOSOT Z131 BANUB DCT USEDU/N0449F350 Z14 BEKBA T280 KETAP KETAP1R |
| Aircraft | B738/M-SDE2E3FGHIRWXY/LB1 |
Departure
| Time | 2026-04-29 17:50 |
|---|---|
| Airport | Riga International Airport (EVRA) |
Arrival
| Time | N/A |
|---|---|
| Airport | Berlin Brandenburg Airport (EDDB) |
| Time | Latitude | Longitude | Altitude | Speed | Heading |
|---|---|---|---|---|---|
| 2026-04-29 17:28 | 56.92441 | 23.97712 | 43 ft | 0 kts | 5° |
| 2026-04-29 17:41 | 56.92429 | 23.97710 | 43 ft | 4 kts | 358° |
| 2026-04-29 17:41 | 56.92404 | 23.97719 | 42 ft | 4 kts | 328° |
| 2026-04-29 17:42 | 56.92387 | 23.97752 | 40 ft | 4 kts | 283° |
| 2026-04-29 17:42 | 56.92385 | 23.97771 | 39 ft | 1 kts | 275° |
| 2026-04-29 17:45 | 56.92386 | 23.97758 | 39 ft | 2 kts | 275° |
| 2026-04-29 17:45 | 56.92387 | 23.97731 | 40 ft | 4 kts | 275° |
| 2026-04-29 17:45 | 56.92391 | 23.97640 | 42 ft | 10 kts | 275° |
| 2026-04-29 17:46 | 56.92370 | 23.97510 | 42 ft | 12 kts | 205° |
| 2026-04-29 17:46 | 56.92284 | 23.97486 | 43 ft | 12 kts | 185° |
| 2026-04-29 17:46 | 56.92193 | 23.97471 | 43 ft | 15 kts | 185° |
| 2026-04-29 17:46 | 56.92071 | 23.97452 | 43 ft | 21 kts | 184° |
| 2026-04-29 17:47 | 56.91909 | 23.97435 | 42 ft | 26 kts | 181° |
| 2026-04-29 17:47 | 56.91716 | 23.97403 | 43 ft | 17 kts | 185° |
| 2026-04-29 17:47 | 56.91588 | 23.97383 | 43 ft | 20 kts | 185° |
| 2026-04-29 17:47 | 56.91434 | 23.97357 | 43 ft | 23 kts | 185° |
| 2026-04-29 17:48 | 56.91277 | 23.97330 | 43 ft | 22 kts | 185° |
| 2026-04-29 17:48 | 56.91121 | 23.97304 | 43 ft | 23 kts | 185° |
| 2026-04-29 17:48 | 56.90962 | 23.97230 | 43 ft | 24 kts | 209° |
| 2026-04-29 17:48 | 56.90806 | 23.97158 | 43 ft | 23 kts | 186° |
| 2026-04-29 17:49 | 56.90671 | 23.97101 | 42 ft | 17 kts | 226° |
| 2026-04-29 17:49 | 56.90653 | 23.96901 | 42 ft | 14 kts | 276° |
| 2026-04-29 17:49 | 56.90702 | 23.96839 | 42 ft | 11 kts | 5° |
| 2026-04-29 17:49 | 56.90856 | 23.96864 | 41 ft | 48 kts | 5° |
| 2026-04-29 17:50 | 56.91411 | 23.96955 | 45 ft | 110 kts | 5° |
| 2026-04-29 17:50 | 56.92335 | 23.97070 | 123 ft | 149 kts | 1° |
| 2026-04-29 17:50 | 56.93396 | 23.97164 | 683 ft | 153 kts | 1° |
| 2026-04-29 17:50 | 56.94468 | 23.97303 | 1371 ft | 153 kts | 5° |
| 2026-04-29 17:51 | 56.95542 | 23.97502 | 1920 ft | 164 kts | 4° |
| 2026-04-29 17:51 | 56.96767 | 23.97724 | 2162 ft | 189 kts | 4° |
| 2026-04-29 17:51 | 56.98153 | 23.97971 | 2298 ft | 211 kts | 4° |
| 2026-04-29 17:51 | 56.99677 | 23.98244 | 2539 ft | 231 kts | 4° |
| 2026-04-29 17:52 | 57.01316 | 23.98531 | 3098 ft | 240 kts | 4° |
| 2026-04-29 17:52 | 57.02422 | 23.98723 | 3579 ft | 242 kts | 4° |
| 2026-04-29 17:52 | 57.04679 | 23.99085 | 4574 ft | 244 kts | 359° |
| 2026-04-29 17:52 | 57.06315 | 23.98339 | 5265 ft | 247 kts | 329° |
| 2026-04-29 17:53 | 57.07583 | 23.96199 | 5929 ft | 252 kts | 307° |
| 2026-04-29 17:53 | 57.08444 | 23.93353 | 6347 ft | 257 kts | 298° |
| 2026-04-29 17:53 | 57.09197 | 23.90357 | 6360 ft | 259 kts | 297° |
| 2026-04-29 17:53 | 57.09944 | 23.87354 | 6374 ft | 258 kts | 297° |
| 2026-04-29 17:54 | 57.10697 | 23.84369 | 6664 ft | 264 kts | 297° |
| 2026-04-29 17:54 | 57.11116 | 23.81087 | 7430 ft | 269 kts | 272° |
| 2026-04-29 17:54 | 57.10828 | 23.77658 | 8182 ft | 275 kts | 259° |
| 2026-04-29 17:54 | 57.10287 | 23.74188 | 8863 ft | 282 kts | 257° |
| 2026-04-29 17:55 | 57.09728 | 23.70754 | 9569 ft | 286 kts | 258° |
| 2026-04-29 17:55 | 57.09140 | 23.67218 | 10290 ft | 293 kts | 253° |
| 2026-04-29 17:55 | 57.07975 | 23.64036 | 10748 ft | 316 kts | 226° |
| 2026-04-29 17:55 | 57.06211 | 23.61371 | 10934 ft | 340 kts | 220° |
| 2026-04-29 17:56 | 57.04281 | 23.58644 | 11136 ft | 360 kts | 220° |
| 2026-04-29 17:56 | 57.02278 | 23.55780 | 11638 ft | 369 kts | 220° |
| 2026-04-29 17:56 | 57.00254 | 23.52840 | 12304 ft | 373 kts | 221° |
| 2026-04-29 17:56 | 56.98217 | 23.49873 | 13026 ft | 376 kts | 220° |
| 2026-04-29 17:57 | 56.96131 | 23.46918 | 13743 ft | 381 kts | 220° |
| 2026-04-29 17:57 | 56.94011 | 23.43957 | 14423 ft | 386 kts | 220° |
| 2026-04-29 17:57 | 56.91864 | 23.40969 | 15087 ft | 390 kts | 220° |
| 2026-04-29 17:57 | 56.90433 | 23.38976 | 15540 ft | 392 kts | 220° |
| 2026-04-29 17:58 | 56.87509 | 23.34899 | 16441 ft | 398 kts | 220° |
| 2026-04-29 17:58 | 56.85294 | 23.31809 | 17107 ft | 402 kts | 220° |
| 2026-04-29 17:58 | 56.83058 | 23.28695 | 17755 ft | 406 kts | 220° |
| 2026-04-29 17:58 | 56.80804 | 23.25546 | 18411 ft | 410 kts | 222° |
| 2026-04-29 17:59 | 56.78896 | 23.21720 | 18946 ft | 407 kts | 243° |
| 2026-04-29 17:59 | 56.77797 | 23.17019 | 19470 ft | 402 kts | 262° |
| 2026-04-29 17:59 | 56.77314 | 23.11998 | 19997 ft | 403 kts | 267° |
| 2026-04-29 17:59 | 56.76918 | 23.06976 | 20481 ft | 409 kts | 268° |
| 2026-04-29 18:00 | 56.76509 | 23.01807 | 20962 ft | 414 kts | 268° |
| 2026-04-29 18:00 | 56.76075 | 22.96585 | 21475 ft | 419 kts | 267° |
| 2026-04-29 18:00 | 56.75616 | 22.91300 | 21968 ft | 424 kts | 267° |
| 2026-04-29 18:00 | 56.75140 | 22.85969 | 22450 ft | 429 kts | 267° |
| 2026-04-29 18:01 | 56.74665 | 22.80581 | 22925 ft | 434 kts | 268° |
| 2026-04-29 18:01 | 56.74229 | 22.75113 | 23399 ft | 437 kts | 269° |
| 2026-04-29 18:01 | 56.73809 | 22.69596 | 23847 ft | 441 kts | 269° |
| 2026-04-29 18:01 | 56.73386 | 22.64057 | 24324 ft | 443 kts | 269° |
| 2026-04-29 18:02 | 56.72953 | 22.58482 | 24746 ft | 446 kts | 269° |
| 2026-04-29 18:02 | 56.72510 | 22.52870 | 25140 ft | 449 kts | 269° |
| 2026-04-29 18:02 | 56.72058 | 22.47217 | 25533 ft | 453 kts | 269° |
| 2026-04-29 18:02 | 56.71564 | 22.41530 | 25934 ft | 457 kts | 267° |
| 2026-04-29 18:03 | 56.70991 | 22.35821 | 26319 ft | 461 kts | 266° |
| 2026-04-29 18:03 | 56.70377 | 22.30070 | 26696 ft | 464 kts | 266° |
| 2026-04-29 18:03 | 56.69748 | 22.24298 | 27054 ft | 467 kts | 266° |
| 2026-04-29 18:03 | 56.69115 | 22.18481 | 27423 ft | 470 kts | 266° |
| 2026-04-29 18:04 | 56.68483 | 22.12635 | 27783 ft | 472 kts | 266° |
| 2026-04-29 18:04 | 56.67850 | 22.06748 | 28132 ft | 475 kts | 267° |
| 2026-04-29 18:04 | 56.67216 | 22.00839 | 28423 ft | 478 kts | 267° |
| 2026-04-29 18:04 | 56.66579 | 21.94897 | 28757 ft | 481 kts | 267° |
| 2026-04-29 18:05 | 56.65937 | 21.88919 | 29084 ft | 483 kts | 267° |
| 2026-04-29 18:05 | 56.65288 | 21.82912 | 29418 ft | 486 kts | 267° |
| 2026-04-29 18:05 | 56.64634 | 21.76879 | 29718 ft | 488 kts | 267° |
| 2026-04-29 18:05 | 56.63972 | 21.70811 | 30031 ft | 490 kts | 267° |
| 2026-04-29 18:06 | 56.63305 | 21.64725 | 30356 ft | 492 kts | 267° |
| 2026-04-29 18:06 | 56.62633 | 21.58638 | 30735 ft | 491 kts | 267° |
| 2026-04-29 18:06 | 56.61957 | 21.52555 | 31129 ft | 490 kts | 267° |
| 2026-04-29 18:06 | 56.61281 | 21.46500 | 31495 ft | 489 kts | 267° |
| 2026-04-29 18:07 | 56.60603 | 21.40437 | 31770 ft | 491 kts | 267° |
| 2026-04-29 18:07 | 56.59922 | 21.34359 | 31986 ft | 492 kts | 267° |
| 2026-04-29 18:07 | 56.59245 | 21.28356 | 32298 ft | 493 kts | 267° |
| 2026-04-29 18:07 | 56.58555 | 21.22264 | 32622 ft | 492 kts | 267° |
| 2026-04-29 18:08 | 56.57862 | 21.16182 | 32966 ft | 492 kts | 267° |
| 2026-04-29 18:08 | 56.57167 | 21.10113 | 33296 ft | 492 kts | 267° |
| 2026-04-29 18:08 | 56.56468 | 21.04036 | 33600 ft | 492 kts | 267° |
| 2026-04-29 18:08 | 56.55768 | 20.97969 | 33895 ft | 492 kts | 267° |
| 2026-04-29 18:09 | 56.55065 | 20.91907 | 34215 ft | 492 kts | 267° |
| 2026-04-29 18:09 | 56.54358 | 20.85840 | 34451 ft | 493 kts | 267° |
| 2026-04-29 18:09 | 56.53646 | 20.79738 | 34425 ft | 496 kts | 267° |
| 2026-04-29 18:10 | 56.52206 | 20.67524 | 34418 ft | 494 kts | 267° |
| 2026-04-29 18:10 | 56.50763 | 20.55435 | 34430 ft | 491 kts | 268° |
| 2026-04-29 18:11 | 56.49310 | 20.43287 | 34430 ft | 495 kts | 268° |
| 2026-04-29 18:11 | 56.47836 | 20.31079 | 34441 ft | 499 kts | 267° |
| 2026-04-29 18:12 | 56.46335 | 20.18795 | 34444 ft | 501 kts | 267° |
| 2026-04-29 18:12 | 56.44814 | 20.06465 | 34439 ft | 502 kts | 267° |
| 2026-04-29 18:13 | 56.43281 | 19.94150 | 34387 ft | 502 kts | 268° |
| 2026-04-29 18:13 | 56.41751 | 19.81958 | 34431 ft | 500 kts | 267° |
| 2026-04-29 18:14 | 56.40194 | 19.69644 | 34439 ft | 500 kts | 267° |
| 2026-04-29 18:14 | 56.38635 | 19.57419 | 34441 ft | 499 kts | 267° |
| 2026-04-29 18:15 | 56.37068 | 19.45229 | 34435 ft | 499 kts | 267° |
| 2026-04-29 18:15 | 56.35498 | 19.33126 | 34444 ft | 499 kts | 267° |
| 2026-04-29 18:16 | 56.33906 | 19.20960 | 34442 ft | 498 kts | 267° |
| 2026-04-29 18:16 | 56.32305 | 19.08817 | 34437 ft | 498 kts | 266° |
| 2026-04-29 18:17 | 56.30693 | 18.96669 | 34451 ft | 499 kts | 266° |
| 2026-04-29 18:17 | 56.29104 | 18.84503 | 34444 ft | 497 kts | 268° |
| 2026-04-29 18:18 | 56.27772 | 18.72299 | 34443 ft | 496 kts | 270° |
| 2026-04-29 18:18 | 56.26466 | 18.60092 | 34409 ft | 497 kts | 269° |
| 2026-04-29 18:19 | 56.25102 | 18.47910 | 34434 ft | 497 kts | 269° |
| 2026-04-29 18:19 | 56.23713 | 18.35731 | 34450 ft | 498 kts | 268° |
| 2026-04-29 18:20 | 56.22220 | 18.23543 | 34449 ft | 503 kts | 265° |
| 2026-04-29 18:20 | 56.20353 | 18.11483 | 34452 ft | 505 kts | 264° |
| 2026-04-29 18:21 | 56.18283 | 17.99380 | 34441 ft | 515 kts | 255° |
| 2026-04-29 18:21 | 56.14564 | 17.88202 | 34470 ft | 528 kts | 239° |
| 2026-04-29 18:22 | 56.10097 | 17.77735 | 34448 ft | 528 kts | 238° |
| 2026-04-29 18:22 | 56.05625 | 17.67325 | 34457 ft | 526 kts | 238° |
| 2026-04-29 18:23 | 56.01211 | 17.56906 | 34448 ft | 525 kts | 238° |
| 2026-04-29 18:23 | 55.96820 | 17.46487 | 34459 ft | 524 kts | 239° |
| 2026-04-29 18:24 | 55.92435 | 17.36115 | 34461 ft | 523 kts | 238° |
| 2026-04-29 18:24 | 55.88043 | 17.25779 | 34439 ft | 523 kts | 238° |
| 2026-04-29 18:25 | 55.83638 | 17.15468 | 34457 ft | 523 kts | 238° |
| 2026-04-29 18:25 | 55.79250 | 17.05239 | 34443 ft | 523 kts | 238° |
| 2026-04-29 18:26 | 55.74832 | 16.94984 | 34452 ft | 523 kts | 238° |
| 2026-04-29 18:26 | 55.71110 | 16.86377 | 34458 ft | 523 kts | 238° |
| 2026-04-29 18:27 | 55.66702 | 16.76223 | 34450 ft | 524 kts | 237° |
| 2026-04-29 18:27 | 55.62238 | 16.65982 | 34457 ft | 525 kts | 237° |
| 2026-04-29 18:28 | 55.57761 | 16.55754 | 34461 ft | 526 kts | 237° |
| 2026-04-29 18:28 | 55.53268 | 16.45532 | 34455 ft | 527 kts | 237° |
| 2026-04-29 18:29 | 55.48761 | 16.35324 | 34453 ft | 528 kts | 237° |
| 2026-04-29 18:29 | 55.44236 | 16.25114 | 34451 ft | 528 kts | 237° |
| 2026-04-29 18:30 | 55.39703 | 16.14931 | 34455 ft | 529 kts | 236° |
| 2026-04-29 18:30 | 55.35156 | 16.04759 | 34454 ft | 529 kts | 236° |
| 2026-04-29 18:31 | 55.30598 | 15.94604 | 34456 ft | 529 kts | 236° |
| 2026-04-29 18:31 | 55.26034 | 15.84478 | 34459 ft | 529 kts | 236° |